createdAt,value
2018-03-19T00:00:41.094Z,22.10
2018-03-19T00:03:09.270Z,20.07
2018-03-19T00:05:37.494Z,20.88
2018-03-19T00:08:05.692Z,19.25
2018-03-19T00:10:34.732Z,20.75
2018-03-19T00:13:02.950Z,21.52
2018-03-19T00:15:31.165Z,21.05
2018-03-19T00:17:59.371Z,20.12
2018-03-19T00:20:27.599Z,21.33
2018-03-19T00:22:56.641Z,21.12
2018-03-19T00:25:24.846Z,18.08
2018-03-19T00:27:53.090Z,19.20
2018-03-19T00:30:21.262Z,21.52
2018-03-19T00:32:49.456Z,20.62
2018-03-19T00:35:17.660Z,21.17
2018-03-19T00:37:46.639Z,23.35
2018-03-19T00:40:14.840Z,22.10
2018-03-19T00:42:43.882Z,24.05
2018-03-19T00:45:12.118Z,20.50
2018-03-19T00:47:40.322Z,23.70
2018-03-19T00:50:08.509Z,24.55
2018-03-19T00:52:36.698Z,22.65
2018-03-19T00:55:04.951Z,22.83
2018-03-19T00:57:33.162Z,24.63
2018-03-19T01:00:01.359Z,24.55
2018-03-19T01:02:30.306Z,24.23
2018-03-19T01:04:58.490Z,24.45
2018-03-19T01:07:26.682Z,21.05
2018-03-19T01:09:54.939Z,22.75
2018-03-19T01:12:23.139Z,22.05
2018-03-19T01:14:51.321Z,21.60
2018-03-19T01:17:20.265Z,23.55
2018-03-19T01:19:48.446Z,23.10
2018-03-19T01:22:16.641Z,23.42
2018-03-19T01:24:44.838Z,24.50
2018-03-19T01:27:13.803Z,21.90
2018-03-19T01:29:41.992Z,20.95
2018-03-19T01:32:10.234Z,20.10
2018-03-19T01:34:38.462Z,19.02
2018-03-19T01:37:07.438Z,20.05
2018-03-19T01:39:35.639Z,19.65
2018-03-19T01:42:03.829Z,21.23
2018-03-19T01:44:32.054Z,22.23
2018-03-19T01:47:00.247Z,20.80
2018-03-19T01:49:29.205Z,21.02
2018-03-19T01:51:57.414Z,22.62
2018-03-19T01:54:25.609Z,19.60
2018-03-19T01:56:53.797Z,20.83
2018-03-19T01:59:21.987Z,18.85
2018-03-19T02:01:50.184Z,20.02
2018-03-19T02:04:18.449Z,18.92
2018-03-19T02:06:46.658Z,17.80
2018-03-19T02:09:14.852Z,19.77
2018-03-19T02:11:43.801Z,23.92
2018-03-19T02:14:12.035Z,20.47
2018-03-19T02:16:40.984Z,19.53
2018-03-19T02:19:09.177Z,20.20
2018-03-19T02:21:37.385Z,20.12
2018-03-19T02:24:05.610Z,21.35
2018-03-19T02:26:33.861Z,19.40
2018-03-19T02:29:02.049Z,22.55
2018-03-19T02:31:30.259Z,21.02
2018-03-19T02:33:59.220Z,20.35
2018-03-19T02:36:27.446Z,20.45
2018-03-19T02:38:55.636Z,19.05
2018-03-19T02:41:23.817Z,19.35
2018-03-19T02:43:52.070Z,20.80
2018-03-19T02:46:20.267Z,22.05
2018-03-19T02:48:48.455Z,19.25
2018-03-19T02:51:16.651Z,21.80
2018-03-19T02:53:44.872Z,19.70
2018-03-19T02:56:13.062Z,19.98
2018-03-19T02:58:41.259Z,21.45
2018-03-19T03:01:09.698Z,19.87
2018-03-19T03:03:37.892Z,18.20
2018-03-19T03:06:06.111Z,19.48
2018-03-19T03:08:35.061Z,21.70
2018-03-19T03:11:03.241Z,20.35
2018-03-19T03:13:31.437Z,19.20
2018-03-19T03:15:59.658Z,18.52
2018-03-19T03:18:28.655Z,19.45
2018-03-19T03:20:57.700Z,18.42
2018-03-19T03:23:25.913Z,19.48
2018-03-19T03:25:54.878Z,18.05
2018-03-19T03:28:23.059Z,20.58
2018-03-19T03:30:51.302Z,19.83
2018-03-19T03:33:19.504Z,20.00
2018-03-19T03:35:47.713Z,20.25
2018-03-19T03:38:16.666Z,19.23
2018-03-19T03:40:44.929Z,17.27
2018-03-19T03:43:13.130Z,20.30
2018-03-19T03:45:41.325Z,18.98
2018-03-19T03:48:09.506Z,19.45
2018-03-19T03:50:38.474Z,21.08
2018-03-19T03:53:06.696Z,19.02
2018-03-19T03:55:34.878Z,18.17
2018-03-19T03:58:03.099Z,18.25
2018-03-19T04:00:31.286Z,19.95
2018-03-19T04:02:59.475Z,19.12
2018-03-19T04:05:28.458Z,19.37
2018-03-19T04:07:56.653Z,19.20
2018-03-19T04:10:25.601Z,17.67
2018-03-19T04:12:53.787Z,19.60
2018-03-19T04:15:22.001Z,19.10
2018-03-19T04:17:50.186Z,19.35
2018-03-19T04:20:18.379Z,18.55
2018-03-19T04:22:46.576Z,17.92
2018-03-19T04:25:15.529Z,18.73
2018-03-19T04:27:43.748Z,20.47
2018-03-19T04:30:11.933Z,17.92
2018-03-19T04:32:40.131Z,19.30
2018-03-19T04:35:09.098Z,18.35
2018-03-19T04:37:37.308Z,19.67
2018-03-19T04:40:06.255Z,19.42
2018-03-19T04:42:34.441Z,21.10
2018-03-19T04:45:02.635Z,20.60
2018-03-19T04:47:30.876Z,16.98
2018-03-19T04:49:59.075Z,17.27
2018-03-19T04:52:27.294Z,19.55
2018-03-19T04:54:55.515Z,18.95
2018-03-19T04:57:23.704Z,20.50
2018-03-19T04:59:51.892Z,18.92
2018-03-19T05:02:20.859Z,18.92
2018-03-19T05:04:49.050Z,20.20
2018-03-19T05:07:17.230Z,21.37
2018-03-19T05:09:46.227Z,20.48
2018-03-19T05:12:15.172Z,20.50
2018-03-19T05:14:43.343Z,18.50
2018-03-19T05:17:11.545Z,18.75
2018-03-19T05:19:39.730Z,17.35
2018-03-19T05:22:07.921Z,20.58
2018-03-19T05:24:36.861Z,20.10
2018-03-19T05:27:05.049Z,20.17
2018-03-19T05:29:33.244Z,19.50
2018-03-19T05:32:01.443Z,19.02
2018-03-19T05:34:30.390Z,20.77
2018-03-19T05:36:58.591Z,20.73
2018-03-19T05:39:26.791Z,20.00
2018-03-19T05:41:55.740Z,20.52
2018-03-19T05:44:23.966Z,19.50
2018-03-19T05:46:52.197Z,19.15
2018-03-19T05:49:20.392Z,20.10
2018-03-19T05:51:48.571Z,21.33
2018-03-19T05:54:17.533Z,23.58
2018-03-19T05:56:45.747Z,19.60
2018-03-19T05:59:14.707Z,19.37
2018-03-19T06:01:42.894Z,20.90
2018-03-19T06:04:11.083Z,19.48
2018-03-19T06:06:40.071Z,19.57
2018-03-19T06:09:09.030Z,21.58
2018-03-19T06:11:37.212Z,19.90
2018-03-19T06:14:05.407Z,22.33
2018-03-19T06:16:33.598Z,21.12
2018-03-19T06:19:02.575Z,20.90
2018-03-19T06:21:30.818Z,22.13
2018-03-19T06:23:59.005Z,20.98
2018-03-19T06:26:27.192Z,20.00
2018-03-19T06:28:55.395Z,18.30
2018-03-19T06:31:24.359Z,21.70
2018-03-19T06:33:52.551Z,21.83
2018-03-19T06:36:20.734Z,21.13
2018-03-19T06:38:49.702Z,19.42
2018-03-19T06:41:17.882Z,22.05
2018-03-19T06:43:46.054Z,18.90
2018-03-19T06:46:14.242Z,20.90
2018-03-19T06:48:42.495Z,20.63
2018-03-19T06:51:10.685Z,22.48
2018-03-19T06:53:38.870Z,20.27
2018-03-19T06:56:07.068Z,21.53
2018-03-19T06:58:36.031Z,19.03
2018-03-19T07:01:04.202Z,18.83
2018-03-19T07:03:32.397Z,17.52
2018-03-19T07:06:01.342Z,20.10
2018-03-19T07:08:29.539Z,20.20
2018-03-19T07:10:57.726Z,19.80
2018-03-19T07:13:25.934Z,20.93
2018-03-19T07:15:54.129Z,19.58
2018-03-19T07:18:22.339Z,21.60
2018-03-19T07:20:50.538Z,21.00
2018-03-19T07:23:19.541Z,22.57
2018-03-19T07:25:48.550Z,21.33
2018-03-19T07:28:16.722Z,19.80
2018-03-19T07:30:44.908Z,21.00
2018-03-19T07:33:13.202Z,22.60
2018-03-19T07:35:41.388Z,22.87
2018-03-19T07:38:09.570Z,22.27
2018-03-19T07:40:37.772Z,22.60
2018-03-19T07:43:05.994Z,20.87
2018-03-19T07:45:34.181Z,20.17
2018-03-19T07:48:02.475Z,20.62
2018-03-19T07:50:31.368Z,20.13
2018-03-19T07:52:59.581Z,20.73
2018-03-19T07:55:28.518Z,20.03
2018-03-19T07:57:56.758Z,18.77
2018-03-19T08:00:24.939Z,19.50
2018-03-19T08:02:53.138Z,19.20
2018-03-19T08:05:21.318Z,19.97
2018-03-19T08:07:49.510Z,19.07
2018-03-19T08:10:17.695Z,19.43
2018-03-19T08:12:45.882Z,21.10
2018-03-19T08:15:14.116Z,19.13
2018-03-19T08:17:42.300Z,20.23
2018-03-19T08:20:10.506Z,18.73
2018-03-19T08:22:38.686Z,17.93
2018-03-19T08:25:07.657Z,19.60
2018-03-19T08:27:35.854Z,18.37
2018-03-19T08:30:04.798Z,20.07
2018-03-19T08:32:32.970Z,20.60
2018-03-19T08:35:01.147Z,20.50
2018-03-19T08:37:29.322Z,20.47
2018-03-19T08:39:57.589Z,22.47
2018-03-19T08:42:25.755Z,21.10
2018-03-19T08:44:53.942Z,23.07
2018-03-19T08:47:22.114Z,20.30
2018-03-19T08:49:51.079Z,20.00
2018-03-19T08:52:20.024Z,20.93
2018-03-19T08:54:48.213Z,20.37
2018-03-19T08:57:16.413Z,19.17
2018-03-19T08:59:45.356Z,21.37
2018-03-19T09:02:13.539Z,21.20
2018-03-19T09:04:41.728Z,22.30
2018-03-19T09:07:09.908Z,20.37
2018-03-19T09:09:38.101Z,20.93
2018-03-19T09:12:07.994Z,20.40
2018-03-19T09:14:36.239Z,21.33
2018-03-19T09:17:04.404Z,19.97
2018-03-19T09:19:32.578Z,22.40
2018-03-19T09:22:00.763Z,22.87
2018-03-19T09:24:30.914Z,20.67
2018-03-19T09:26:59.090Z,21.70
2018-03-19T09:29:27.263Z,21.77
2018-03-19T09:31:55.458Z,20.50
2018-03-19T09:34:24.409Z,21.40
2018-03-19T09:36:52.623Z,19.70
2018-03-19T09:39:20.796Z,21.00
2018-03-19T09:41:49.775Z,21.83
2018-03-19T09:44:17.941Z,18.60
2018-03-19T09:46:46.109Z,20.27
2018-03-19T09:49:14.291Z,20.50
2018-03-19T09:51:42.487Z,19.23
2018-03-19T09:54:11.443Z,21.37
2018-03-19T09:56:39.618Z,19.73
2018-03-19T09:59:07.787Z,20.13
2018-03-19T10:01:35.961Z,20.50
2018-03-19T10:04:04.158Z,20.03
2018-03-19T10:06:32.331Z,18.77
2018-03-19T10:09:00.499Z,18.77
2018-03-19T10:11:28.694Z,19.40
2018-03-19T10:13:56.866Z,17.83
2018-03-19T10:16:25.042Z,17.63
2018-03-19T10:18:53.216Z,15.80
2018-03-19T10:21:21.390Z,14.07
2018-03-19T10:23:49.556Z,14.70
2018-03-19T10:26:17.718Z,14.50
2018-03-19T10:28:45.889Z,14.20
2018-03-19T10:31:14.075Z,12.87
2018-03-19T10:33:42.251Z,13.47
2018-03-19T10:36:10.460Z,13.97
2018-03-19T10:38:39.443Z,13.47
2018-03-19T10:41:07.603Z,14.50
2018-03-19T10:43:35.774Z,15.60
2018-03-19T10:46:03.957Z,15.20
2018-03-19T10:48:32.124Z,15.20
2018-03-19T10:51:00.314Z,16.97
2018-03-19T10:53:28.505Z,21.00
2018-03-19T10:55:57.479Z,15.93
2018-03-19T10:58:25.653Z,16.57
2018-03-19T11:00:53.849Z,15.90
2018-03-19T11:03:28.337Z,16.50
2018-03-19T11:05:56.546Z,16.10
2018-03-19T11:08:30.929Z,17.40
2018-03-19T11:10:59.114Z,16.10
2018-03-19T11:13:27.330Z,16.67
2018-03-19T11:15:55.503Z,18.93
2018-03-19T11:18:23.686Z,15.97
2018-03-19T11:20:51.858Z,15.50
2018-03-19T11:23:20.034Z,14.00
2018-03-19T11:25:48.252Z,14.83
2018-03-19T11:28:16.418Z,13.07
2018-03-19T11:30:44.620Z,14.43
2018-03-19T11:33:12.802Z,13.60
2018-03-19T11:35:41.734Z,15.13
2018-03-19T11:38:09.923Z,16.10
2018-03-19T11:40:38.098Z,16.63
2018-03-19T11:43:06.280Z,14.83
2018-03-19T11:45:34.481Z,16.30
2018-03-19T11:48:02.650Z,14.67
2018-03-19T11:50:36.034Z,15.57
2018-03-19T11:53:04.674Z,15.83
2018-03-19T11:55:37.220Z,14.70
2018-03-19T11:58:06.169Z,15.63
2018-03-19T12:00:35.130Z,18.33
2018-03-19T12:03:04.605Z,13.17
2018-03-19T12:05:33.974Z,14.90
2018-03-19T12:08:02.142Z,15.70
2018-03-19T12:10:30.308Z,15.47
2018-03-19T12:12:58.492Z,16.67
2018-03-19T12:15:26.666Z,16.03
2018-03-19T12:17:54.851Z,15.67
2018-03-19T12:20:23.061Z,15.43
2018-03-19T12:22:51.235Z,15.47
2018-03-19T12:25:19.418Z,16.03
2018-03-19T12:27:48.361Z,16.37
2018-03-19T12:30:16.527Z,14.00
2018-03-19T12:32:44.716Z,15.80
2018-03-19T12:35:12.886Z,16.40
2018-03-19T12:37:41.052Z,15.93
2018-03-19T12:40:09.225Z,14.20
2018-03-19T12:42:37.440Z,14.63
2018-03-19T12:45:05.610Z,15.80
2018-03-19T12:47:33.780Z,18.10
2018-03-19T12:50:01.960Z,15.47
2018-03-19T12:52:30.132Z,14.70
2018-03-19T12:54:58.298Z,15.00
2018-03-19T12:57:26.482Z,15.80
2018-03-19T12:59:54.668Z,14.47
2018-03-19T13:02:22.852Z,15.27
2018-03-19T13:04:51.836Z,15.63
2018-03-19T13:07:20.122Z,16.40
2018-03-19T13:09:49.061Z,14.20
2018-03-19T13:12:17.229Z,15.10
2018-03-19T13:14:45.412Z,15.10
2018-03-19T13:17:13.570Z,16.10
2018-03-19T13:19:41.744Z,15.97
2018-03-19T13:22:09.930Z,15.37
2018-03-19T13:24:38.165Z,15.30
2018-03-19T13:27:06.296Z,14.90
2018-03-19T13:29:34.474Z,14.23
2018-03-19T13:32:02.642Z,15.20
2018-03-19T13:34:30.824Z,15.70
2018-03-19T13:36:58.993Z,16.53
2018-03-19T13:39:27.172Z,15.43
2018-03-19T13:41:55.338Z,15.50
2018-03-19T13:44:23.519Z,15.60
2018-03-19T13:46:51.688Z,14.97
2018-03-19T13:49:20.626Z,14.83
2018-03-19T13:51:49.561Z,15.00
2018-03-19T13:54:17.788Z,16.40
2018-03-19T13:56:45.967Z,15.60
2018-03-19T13:59:14.905Z,12.77
2018-03-19T14:01:43.083Z,15.90
2018-03-19T14:04:11.256Z,14.80
2018-03-19T14:06:39.439Z,14.03
2018-03-19T14:09:07.611Z,15.57
2018-03-19T14:11:35.809Z,15.50
2018-03-19T14:14:03.975Z,15.97
2018-03-19T14:16:32.148Z,17.93
2018-03-19T14:19:00.310Z,18.60
2018-03-19T14:21:28.522Z,18.40
2018-03-19T14:23:56.687Z,18.30
2018-03-19T14:26:24.915Z,18.30
2018-03-19T14:28:53.099Z,18.50
2018-03-19T14:31:21.277Z,17.93
2018-03-19T14:33:49.452Z,17.30
2018-03-19T14:36:17.709Z,16.90
2018-03-19T14:38:46.618Z,18.00
2018-03-19T14:41:14.978Z,16.33
2018-03-19T14:43:43.153Z,17.17
2018-03-19T14:46:11.325Z,15.67
2018-03-19T14:48:39.504Z,17.40
2018-03-19T14:51:07.699Z,17.93
2018-03-19T14:53:35.873Z,16.77
2018-03-19T14:56:04.053Z,18.47
2018-03-19T14:58:32.237Z,17.60
2018-03-19T15:01:00.401Z,16.50
2018-03-19T15:03:28.578Z,18.00
2018-03-19T15:05:56.757Z,17.00
2018-03-19T15:08:24.942Z,17.27
2018-03-19T15:10:53.123Z,16.80
2018-03-19T15:13:21.291Z,16.67
2018-03-19T15:15:49.466Z,17.70
2018-03-19T15:18:17.636Z,16.83
2018-03-19T15:20:45.819Z,17.97
2018-03-19T15:23:14.026Z,19.63
2018-03-19T15:25:43.035Z,17.73
2018-03-19T15:28:11.203Z,18.70
2018-03-19T15:30:39.383Z,18.03
2018-03-19T15:33:07.558Z,16.90
2018-03-19T15:35:35.739Z,19.13
2018-03-19T15:38:03.906Z,17.67
2018-03-19T15:40:32.834Z,17.63
2018-03-19T15:43:01.010Z,17.60
2018-03-19T15:45:29.181Z,16.50
2018-03-19T15:47:57.358Z,17.90
2018-03-19T15:50:25.571Z,17.37
2018-03-19T15:52:53.751Z,17.63
2018-03-19T15:55:22.711Z,18.17
2018-03-19T15:57:50.906Z,18.57
2018-03-19T16:00:19.082Z,20.47
2018-03-19T16:02:47.285Z,20.90
2018-03-19T16:05:16.234Z,20.13
2018-03-19T16:07:44.427Z,21.03
2018-03-19T16:10:12.622Z,19.77
2018-03-19T16:12:41.573Z,21.67
2018-03-19T16:15:10.139Z,22.10
2018-03-19T16:17:38.362Z,18.60
2018-03-19T16:20:06.510Z,21.00
2018-03-19T16:22:34.696Z,19.77
2018-03-19T16:25:02.883Z,20.40
2018-03-19T16:27:31.854Z,20.33
2018-03-19T16:30:00.019Z,21.23
2018-03-19T16:32:28.202Z,20.53
2018-03-19T16:34:56.378Z,22.10
2018-03-19T16:37:24.550Z,23.73
2018-03-19T16:39:52.715Z,24.27
2018-03-19T16:42:20.883Z,22.50
2018-03-19T16:44:49.051Z,22.37
2018-03-19T16:47:17.240Z,22.20
2018-03-19T16:49:45.413Z,22.67
2018-03-19T16:52:13.585Z,25.57
2018-03-19T16:54:41.748Z,22.37
2018-03-19T16:57:09.918Z,22.90
2018-03-19T16:59:38.109Z,24.45
2018-03-19T17:02:06.297Z,23.03
2018-03-19T17:04:34.476Z,22.80
2018-03-19T17:07:02.718Z,23.10
2018-03-19T17:09:30.843Z,24.10
2018-03-19T17:11:59.809Z,24.00
2018-03-19T17:14:27.985Z,24.57
2018-03-19T17:16:56.172Z,23.63
2018-03-19T17:19:24.377Z,23.70
2018-03-19T17:21:53.312Z,24.10
2018-03-19T17:24:21.487Z,23.73
2018-03-19T17:26:50.692Z,25.63
2018-03-19T17:29:18.867Z,25.53
2018-03-19T17:31:47.054Z,25.00
2018-03-19T17:34:15.247Z,24.87
2018-03-19T17:36:43.422Z,26.40
2018-03-19T17:39:11.598Z,23.97
2018-03-19T17:41:39.819Z,26.47
2018-03-19T17:44:08.727Z,26.80
2018-03-19T17:46:36.919Z,25.23
2018-03-19T17:49:05.106Z,26.33
2018-03-19T17:51:33.286Z,25.62
2018-03-19T17:54:01.477Z,23.77
2018-03-19T17:56:30.558Z,22.90
2018-03-19T17:58:58.731Z,23.30
2018-03-19T18:01:27.707Z,24.48
2018-03-19T18:03:55.872Z,23.70
2018-03-19T18:06:24.051Z,24.67
2018-03-19T18:08:52.234Z,23.33
2018-03-19T18:11:20.442Z,27.57
2018-03-19T18:13:49.378Z,22.90
2018-03-19T18:16:17.560Z,23.90
2018-03-19T18:18:45.744Z,28.27
2018-03-19T18:21:13.924Z,25.13
2018-03-19T18:23:42.082Z,24.70
2018-03-19T18:26:11.029Z,23.40
2018-03-19T18:28:39.223Z,24.30
2018-03-19T18:31:07.434Z,23.90
2018-03-19T18:33:35.613Z,24.33
2018-03-19T18:36:03.799Z,25.33
2018-03-19T18:38:31.991Z,25.25
2018-03-19T18:41:00.946Z,24.23
2018-03-19T18:43:29.142Z,23.07
2018-03-19T18:45:58.147Z,24.50
2018-03-19T18:48:26.342Z,26.67
2018-03-19T18:50:54.518Z,23.60
2018-03-19T18:53:22.702Z,24.37
2018-03-19T18:55:50.915Z,24.10
2018-03-19T18:58:19.119Z,22.50
2018-03-19T19:00:48.118Z,23.73
2018-03-19T19:03:17.077Z,22.90
2018-03-19T19:05:45.277Z,21.77
2018-03-19T19:08:14.251Z,22.87
2018-03-19T19:10:42.454Z,22.33
2018-03-19T19:13:11.410Z,21.97
2018-03-19T19:15:39.589Z,24.10
2018-03-19T19:18:07.792Z,27.35
2018-03-19T19:20:36.752Z,21.25
2018-03-19T19:23:04.938Z,23.25
2018-03-19T19:25:33.149Z,25.23
2018-03-19T19:28:02.105Z,23.53
2018-03-19T19:30:30.298Z,23.20
2018-03-19T19:32:58.560Z,24.73
2018-03-19T19:35:26.771Z,23.50
2018-03-19T19:37:54.992Z,24.58
2018-03-19T19:40:23.188Z,24.77
2018-03-19T19:42:51.436Z,22.92
2018-03-19T19:45:19.620Z,23.23
2018-03-19T19:47:47.815Z,26.98
2018-03-19T19:50:16.036Z,23.45
2018-03-19T19:52:44.215Z,25.00
2018-03-19T19:55:12.390Z,24.70
2018-03-19T19:57:40.590Z,25.30
2018-03-19T20:00:08.836Z,25.42
2018-03-19T20:02:37.014Z,25.30
2018-03-19T20:05:05.230Z,26.00
2018-03-19T20:07:33.426Z,23.67
2018-03-19T20:10:01.615Z,22.98
2018-03-19T20:12:30.615Z,25.00
2018-03-19T20:14:58.834Z,24.08
2018-03-19T20:17:27.022Z,25.60
2018-03-19T20:19:55.243Z,25.17
2018-03-19T20:22:24.194Z,24.63
2018-03-19T20:24:52.804Z,24.12
2018-03-19T20:27:21.777Z,23.83
2018-03-19T20:29:49.999Z,24.73
2018-03-19T20:32:18.210Z,22.95
2018-03-19T20:34:46.834Z,25.08
2018-03-19T20:37:15.801Z,23.75
2018-03-19T20:39:43.990Z,22.10
2018-03-19T20:42:12.181Z,23.77
2018-03-19T20:44:41.167Z,23.17
2018-03-19T20:47:10.117Z,25.75
2018-03-19T20:49:38.302Z,25.48
2018-03-19T20:52:07.311Z,23.42
2018-03-19T20:54:35.551Z,23.60
2018-03-19T20:57:03.748Z,24.45
2018-03-19T20:59:31.955Z,25.73
2018-03-19T21:02:00.135Z,25.85
2018-03-19T21:04:29.128Z,24.80
2018-03-19T21:06:58.084Z,24.80
2018-03-19T21:09:26.268Z,25.73
2018-03-19T21:11:54.457Z,27.73
2018-03-19T21:14:22.665Z,26.30
2018-03-19T21:16:51.610Z,26.50
2018-03-19T21:19:19.818Z,26.05
2018-03-19T21:21:48.771Z,26.00
2018-03-19T21:24:16.954Z,25.50
2018-03-19T21:26:45.161Z,25.85
2018-03-19T21:29:14.119Z,25.92
2018-03-19T21:31:42.326Z,27.85
2018-03-19T21:34:11.291Z,25.20
2018-03-19T21:36:39.495Z,25.92
2018-03-19T21:39:08.462Z,27.13
2018-03-19T21:41:36.634Z,32.38
2018-03-19T21:44:04.829Z,30.35
2018-03-19T21:46:33.011Z,27.02
2018-03-19T21:49:01.967Z,29.98
2018-03-19T21:51:30.154Z,26.62
2018-03-19T21:53:58.338Z,27.60
2018-03-19T21:56:26.549Z,26.92
2018-03-19T21:58:54.744Z,27.07
2018-03-19T22:01:22.933Z,28.30
2018-03-19T22:03:51.165Z,27.30
2018-03-19T22:06:20.114Z,26.42
2018-03-19T22:08:48.328Z,27.77
2018-03-19T22:11:17.287Z,25.08
2018-03-19T22:13:45.467Z,28.70
2018-03-19T22:16:13.693Z,27.77
2018-03-19T22:18:41.887Z,27.98
2018-03-19T22:21:10.082Z,26.35
2018-03-19T22:23:38.268Z,25.10
2018-03-19T22:26:06.472Z,25.48
2018-03-19T22:28:35.426Z,26.05
2018-03-19T22:31:03.622Z,27.65
2018-03-19T22:33:31.833Z,27.98
2018-03-19T22:36:00.061Z,27.13
2018-03-19T22:38:28.248Z,24.15
2018-03-19T22:40:56.449Z,25.12
2018-03-19T22:43:24.679Z,23.30
2018-03-19T22:45:52.862Z,27.95
2018-03-19T22:48:21.043Z,23.60
2018-03-19T22:50:49.226Z,24.63
2018-03-19T22:53:18.192Z,24.63
2018-03-19T22:55:46.369Z,24.83
2018-03-19T22:58:14.560Z,24.40
2018-03-19T23:00:42.743Z,23.17
2018-03-19T23:03:11.707Z,26.02
2018-03-19T23:05:39.936Z,24.25
2018-03-19T23:08:08.126Z,26.37
2018-03-19T23:10:36.303Z,25.30
2018-03-19T23:13:04.486Z,24.52
2018-03-19T23:15:32.683Z,23.77
2018-03-19T23:18:01.641Z,26.62
2018-03-19T23:20:29.815Z,25.35
2018-03-19T23:22:58.050Z,23.08
2018-03-19T23:25:26.219Z,23.35
2018-03-19T23:27:54.502Z,23.60
2018-03-19T23:30:22.684Z,25.35
2018-03-19T23:32:51.646Z,24.75
2018-03-19T23:35:19.828Z,26.17
2018-03-19T23:37:48.016Z,23.52
2018-03-19T23:40:16.199Z,26.27
2018-03-19T23:42:45.158Z,24.70
2018-03-19T23:45:13.370Z,24.85
2018-03-19T23:47:42.314Z,26.10
2018-03-19T23:50:10.508Z,26.73
2018-03-19T23:52:38.686Z,26.02
2018-03-19T23:55:06.867Z,23.15
2018-03-19T23:57:35.096Z,24.02
